Country
Station

 

Weather  for  Warton  -  United Kingdom    United Kingdom

  
17 °C (63 °F)
    
 
 

Current METAR for Warton is :

EGNO 171120Z 26010KT 220V290 9999 SCT020 17/13 Q1015

 

This is a report for Warton - United Kingdom.
 
The report was made 14 minutes ago, at 11:20 UTC .
The wind was blowing at a speed of 5.1 meters per second (11.5 miles per hour) from west (260°), varying between southwest (220°) and west/northwest (290°).
 
The temperature was 17 °C (63 °F), with a dew-point at 13 °C (55 °F).
The atmospheric pressure was 1015 hPa (29.97 inHg).
The relative humidity was 77.3%.
 
There were scattered clouds at a height of 610 meters (2000 feet).
 
The overall visibility was greater than 10 kilometers (6.2 miles).
 

 
 
 
 

Country :   A   B   C   D   E   F   G   H   I   J   K   L   M   N   O   P   Q   R   S   T   U   V   W   Y   Z

 

Site Info  |  Disclaimer  |  Credits  |  Privacy
Contact us  |  Add to favorites
© 2013-2018 METARs - All rights reserved